Time;durP1;ratioP1;P1;durP2;ratioP2;P2;SDS_P1;SDS_P2;PMS_P1;PMS_P2;Temp;Humidity;BMP_temperature;BMP_pressure;BME280_temperature;BME280_humidity;BME280_pressure;Samples;Min_cycle;Max_cycle;Signal;HPM_P1;HPM_P2
2022/06/24 10:26:59;;;;;;;1.90;0.80;;;;;;;26.52;37.45;100397.50;1973425;73;28061;-57
2022/06/24 10:29:32;;;;;;;5.03;1.02;;;;;;;26.41;37.81;100392.43;1948869;73;21583;-60
2022/06/24 10:32:06;;;;;;;2.08;0.90;;;;;;;26.29;36.74;100395.17;1949029;73;21105;-61
2022/06/24 10:34:36;;;;;;;1.47;1.07;;;;;;;26.37;37.59;100382.52;1948944;73;21079;-57
2022/06/24 10:37:09;;;;;;;1.67;1.10;;;;;;;26.55;36.97;100389.55;1948773;73;21477;-57
2022/06/24 10:39:48;;;;;;;1.10;0.95;;;;;;;26.77;37.02;100397.45;1949131;73;21138;-56
2022/06/24 10:42:24;;;;;;;1.22;1.00;;;;;;;26.78;37.07;100389.66;1948943;73;21036;-60
2022/06/24 10:44:59;;;;;;;1.00;0.90;;;;;;;26.75;36.45;100394.08;1948880;73;21481;-60
2022/06/24 10:47:36;;;;;;;2.27;1.00;;;;;;;26.74;36.26;100394.59;1946653;73;21032;-58
2022/06/24 10:50:14;;;;;;;1.00;0.85;;;;;;;26.64;36.62;100385.01;1928258;73;21040;-61
2022/06/24 10:52:50;;;;;;;1.60;1.10;;;;;;;26.49;37.16;100388.38;1915827;73;21082;-60
2022/06/24 10:55:23;;;;;;;1.20;0.78;;;;;;;26.52;37.41;100385.34;1922055;73;21039;-60
2022/06/24 10:58:05;;;;;;;1.00;0.90;;;;;;;26.52;37.29;100396.63;1915573;75;21031;-58
2022/06/24 11:00:48;;;;;;;1.42;0.80;;;;;;;26.23;36.66;100389.09;1913237;75;21059;-61
2022/06/24 11:03:20;;;;;;;1.02;0.80;;;;;;;26.00;37.62;100391.13;1914999;75;21137;-60
2022/06/24 11:05:48;;;;;;;2.22;1.20;;;;;;;25.90;37.90;100397.19;1915186;75;21113;-59
2022/06/24 11:08:20;;;;;;;1.20;0.68;;;;;;;25.75;37.33;100390.27;1915299;75;21449;-58
2022/06/24 11:10:49;;;;;;;3.20;0.90;;;;;;;25.52;37.09;100386.02;1915277;75;21142;-61
2022/06/24 11:13:21;;;;;;;2.35;1.22;;;;;;;25.33;37.57;100385.30;1915390;75;21583;-59
2022/06/24 11:15:54;;;;;;;1.15;1.00;;;;;;;25.22;38.14;100376.16;1915233;75;21110;-63
2022/06/24 11:18:33;;;;;;;;;;;;;;;25.17;38.94;100387.41;1918318;75;21031;-61
2022/06/24 11:21:04;;;;;;;1.90;1.00;;;;;;;25.25;38.38;100392.03;1915260;75;20118;-62
2022/06/24 11:23:35;;;;;;;2.20;0.90;;;;;;;25.26;39.01;100386.97;1915198;75;21055;-62
2022/06/24 11:26:18;;;;;;;3.58;1.27;;;;;;;25.43;39.31;100388.70;1913316;75;21071;-63
2022/06/24 11:28:56;;;;;;;1.67;0.90;;;;;;;25.42;37.79;100391.05;1909961;74;21067;-64
2022/06/24 11:31:33;;;;;;;2.27;1.00;;;;;;;25.26;38.22;100387.48;1909756;75;21549;-64
2022/06/24 11:34:09;;;;;;;1.62;1.10;;;;;;;25.24;38.71;100395.20;1909424;75;21040;-63
2022/06/24 11:36:41;;;;;;;2.37;1.02;;;;;;;25.29;38.05;100380.42;1909642;75;21016;-62
2022/06/24 11:39:10;;;;;;;2.80;1.12;;;;;;;25.14;37.74;100383.71;1909181;75;21476;-62
2022/06/24 11:41:41;;;;;;;1.00;0.90;;;;;;;25.21;38.30;100396.00;1909211;75;21571;-62
2022/06/24 11:44:10;;;;;;;2.20;0.98;;;;;;;25.31;38.54;100395.41;1909243;75;21589;-64
2022/06/24 11:46:38;;;;;;;1.10;0.90;;;;;;;25.35;38.18;100392.72;1909135;75;21015;-61
2022/06/24 11:49:11;;;;;;;1.20;1.00;;;;;;;25.34;37.95;100396.44;1909263;75;21047;-59
2022/06/24 11:51:42;;;;;;;1.40;0.95;;;;;;;25.37;38.15;100394.73;1909427;75;21114;-59
2022/06/24 11:54:11;;;;;;;3.02;0.93;;;;;;;25.42;37.59;100396.44;1909227;75;21043;-59
2022/06/24 11:56:42;;;;;;;2.60;0.95;;;;;;;25.49;37.48;100403.86;1909319;75;21188;-59
2022/06/24 11:59:12;;;;;;;1.17;0.80;;;;;;;25.48;37.25;100392.75;1909321;75;21044;-63
2022/06/24 12:01:41;;;;;;;1.40;1.00;;;;;;;25.35;36.20;100393.23;1909250;75;21538;-60
2022/06/24 12:04:12;;;;;;;1.40;1.10;;;;;;;25.31;37.73;100394.57;1909177;75;21060;-60
2022/06/24 12:06:44;;;;;;;1.22;0.88;;;;;;;25.47;38.03;100392.40;1909253;75;21051;-61
2022/06/24 12:09:14;;;;;;;1.37;0.70;;;;;;;25.63;38.00;100395.12;1909209;74;21020;-59
2022/06/24 12:11:44;;;;;;;1.87;1.00;;;;;;;25.68;37.87;100394.13;1909267;75;21544;-58
2022/06/24 12:14:16;;;;;;;1.42;0.90;;;;;;;25.57;37.55;100387.72;1909161;75;21117;-60
2022/06/24 12:17:08;;;;;;;1.30;1.07;;;;;;;25.48;37.31;100396.80;1908848;75;21113;-60
2022/06/24 12:19:40;;;;;;;0.80;0.70;;;;;;;25.15;37.07;100408.79;1909092;75;21422;-59
2022/06/24 12:22:11;;;;;;;0.80;0.65;;;;;;;24.93;37.40;100408.36;1905843;75;21007;-59
2022/06/24 12:24:42;;;;;;;1.07;0.70;;;;;;;24.84;37.39;100399.90;1909112;75;21043;-60
2022/06/24 12:27:12;;;;;;;1.02;0.70;;;;;;;24.79;37.24;100405.78;1909236;74;21146;-60
2022/06/24 12:29:42;;;;;;;1.65;0.72;;;;;;;24.64;36.66;100400.16;1909230;75;21516;-61
2022/06/24 12:32:11;;;;;;;1.37;1.02;;;;;;;24.48;37.08;100404.89;1909144;75;21067;-59
2022/06/24 12:34:41;;;;;;;1.52;0.80;;;;;;;24.50;37.48;100406.09;1909350;75;21157;-60
2022/06/24 12:37:12;;;;;;;2.05;1.20;;;;;;;24.56;37.92;100400.09;1909258;75;21570;-60
2022/06/24 12:39:47;;;;;;;1.75;1.32;;;;;;;24.54;37.64;100400.75;1909219;75;21040;-61
2022/06/24 12:42:19;;;;;;;1.45;0.90;;;;;;;24.51;37.99;100399.69;1909139;75;21486;-61
2022/06/24 12:44:58;;;;;;;2.77;0.90;;;;;;;24.51;37.77;100396.99;1909113;75;21043;-61
2022/06/24 12:53:03;;;;;;;0.90;0.75;;;;;;;24.33;36.90;100402.93;1909107;75;21083;-60
2022/06/24 12:55:33;;;;;;;1.33;0.80;;;;;;;24.27;37.14;100409.30;1909449;75;21036;-60
2022/06/24 12:58:02;;;;;;;1.62;0.80;;;;;;;24.25;36.84;100414.00;1909266;75;21040;-60
2022/06/24 13:00:31;;;;;;;1.22;0.78;;;;;;;24.25;37.24;100411.31;1909120;75;21105;-60
2022/06/24 13:03:00;;;;;;;1.27;0.80;;;;;;;24.23;36.80;100421.36;1909255;75;21125;-60
2022/06/24 13:05:29;;;;;;;1.82;0.72;;;;;;;24.20;37.03;100420.85;1909049;75;21508;-61
2022/06/24 13:07:57;;;;;;;2.80;1.02;;;;;;;24.12;36.84;100432.37;1909128;75;21047;-60
2022/06/24 13:10:26;;;;;;;1.25;0.85;;;;;;;24.11;37.20;100424.45;1909245;75;21091;-61
2022/06/24 13:12:55;;;;;;;1.62;0.72;;;;;;;24.11;37.23;100426.66;1909107;75;21082;-59
2022/06/24 13:15:24;;;;;;;0.68;0.60;;;;;;;24.14;37.07;100422.30;1909255;75;21023;-60
2022/06/24 13:17:53;;;;;;;4.00;0.70;;;;;;;24.11;36.86;100423.97;1909068;75;21039;-60
2022/06/24 13:20:21;;;;;;;1.25;0.90;;;;;;;24.10;36.56;100418.23;1909148;75;21027;-60
2022/06/24 13:22:50;;;;;;;0.98;0.70;;;;;;;24.06;35.68;100424.93;1909255;75;21055;-60
2022/06/24 13:25:19;;;;;;;2.37;0.80;;;;;;;23.98;35.60;100427.56;1909233;75;21109;-60
2022/06/24 13:27:48;;;;;;;0.82;0.72;;;;;;;23.86;35.90;100421.05;1905969;74;21141;-60
2022/06/24 13:30:17;;;;;;;1.75;0.90;;;;;;;23.91;36.46;100425.14;1901933;75;21052;-60
2022/06/24 13:32:45;;;;;;;1.40;0.80;;;;;;;23.92;36.55;100416.90;1901910;75;21095;-59
2022/06/24 13:35:14;;;;;;;0.70;0.70;;;;;;;23.86;35.91;100425.08;1902030;75;21466;-59
2022/06/24 13:37:43;;;;;;;1.47;0.80;;;;;;;23.79;36.18;100422.69;1901920;75;21533;-59
2022/06/24 13:40:12;;;;;;;1.07;0.60;;;;;;;23.76;35.94;100424.30;1901951;75;21044;-60
2022/06/24 13:42:41;;;;;;;2.52;0.80;;;;;;;23.74;36.20;100430.33;1902037;75;21039;-61
2022/06/24 13:45:10;;;;;;;1.10;0.72;;;;;;;23.72;36.50;100429.64;1901889;75;21114;-60
2022/06/24 13:47:38;;;;;;;0.82;0.78;;;;;;;23.74;36.69;100428.12;1901941;75;21118;-59
2022/06/24 13:50:08;;;;;;;1.15;0.70;;;;;;;23.70;36.56;100422.23;1902015;75;21039;-59
2022/06/24 13:52:36;;;;;;;0.60;0.50;;;;;;;23.65;36.83;100428.56;1901981;75;21137;-60
2022/06/24 13:55:06;;;;;;;2.75;0.60;;;;;;;23.60;36.36;100424.13;1901888;75;21117;-58
2022/06/24 13:57:35;;;;;;;0.80;0.75;;;;;;;23.60;36.70;100432.20;1901772;75;21048;-64
2022/06/24 14:00:06;;;;;;;2.75;0.80;;;;;;;23.62;36.45;100431.54;1901839;75;21039;-59
2022/06/24 14:02:41;;;;;;;1.87;0.93;;;;;;;23.55;36.53;100437.17;1901889;75;21137;-60
2022/06/24 14:05:10;;;;;;;2.05;0.93;;;;;;;23.49;37.58;100431.40;1901901;75;21039;-60
2022/06/24 14:07:38;;;;;;;1.05;0.60;;;;;;;23.49;38.23;100435.94;1901856;75;21024;-61
2022/06/24 14:10:08;;;;;;;1.67;0.75;;;;;;;23.43;38.87;100429.33;1901962;75;21162;-61
2022/06/24 14:12:37;;;;;;;1.55;0.75;;;;;;;23.41;38.67;100431.83;1901977;75;21050;-61
2022/06/24 14:15:08;;;;;;;0.47;0.40;;;;;;;23.37;39.44;100440.69;1901914;75;21172;-61
2022/06/24 14:17:36;;;;;;;1.55;0.68;;;;;;;23.36;39.64;100433.61;1901894;75;21091;-61
2022/06/24 14:20:06;;;;;;;1.00;0.68;;;;;;;23.31;40.56;100439.92;1901882;75;21181;-61
2022/06/24 14:22:35;;;;;;;0.80;0.70;;;;;;;23.31;40.50;100450.67;1901788;75;21047;-61
2022/06/24 14:25:04;;;;;;;2.02;0.78;;;;;;;23.26;40.55;100452.98;1901865;75;21044;-62
2022/06/24 14:27:32;;;;;;;0.78;0.60;;;;;;;23.25;40.68;100453.97;1901813;75;21047;-60
2022/06/24 14:30:01;;;;;;;0.98;0.90;;;;;;;23.23;40.71;100460.82;1901807;75;21048;-61
2022/06/24 14:32:30;;;;;;;2.02;0.80;;;;;;;23.19;41.29;100459.94;1901932;75;21482;-61
2022/06/24 14:34:58;;;;;;;5.05;0.80;;;;;;;23.12;41.66;100453.80;1901786;75;21110;-61
2022/06/24 14:40:15;;;;;;;1.52;0.88;;;;;;;22.96;41.58;100461.61;1901809;75;21138;-61
2022/06/24 14:42:44;;;;;;;0.88;0.65;;;;;;;22.85;41.85;100459.97;1902002;75;21568;-61
2022/06/24 14:45:12;;;;;;;1.10;0.98;;;;;;;22.82;42.30;100456.73;1901801;75;21114;-61
2022/06/24 14:47:41;;;;;;;1.65;1.00;;;;;;;22.82;41.76;100464.79;1901672;75;21070;-61
2022/06/24 14:50:10;;;;;;;2.27;0.70;;;;;;;22.78;41.92;100453.50;1901888;75;21023;-61
2022/06/24 14:52:39;;;;;;;1.72;0.80;;;;;;;22.77;41.71;100461.69;1901924;75;21056;-61
2022/06/24 14:55:08;;;;;;;2.62;0.70;;;;;;;22.75;41.43;100456.46;1901862;75;21055;-59
2022/06/24 14:57:37;;;;;;;0.85;0.72;;;;;;;22.69;41.42;100457.89;1901896;75;21157;-60
2022/06/24 15:00:07;;;;;;;2.02;0.90;;;;;;;22.65;41.55;100452.94;1901706;75;21040;-61
2022/06/24 15:02:35;;;;;;;2.50;1.10;;;;;;;22.59;41.54;100454.88;1901856;75;21040;-58
2022/06/24 15:05:05;;;;;;;0.55;0.55;;;;;;;22.56;41.55;100449.31;1901782;75;21035;-63
2022/06/24 15:07:34;;;;;;;1.05;0.62;;;;;;;22.55;41.58;100450.30;1901762;75;21117;-60
2022/06/24 15:10:04;;;;;;;1.27;0.65;;;;;;;22.53;41.87;100445.06;1901784;75;21043;-60
2022/06/24 15:12:33;;;;;;;0.82;0.50;;;;;;;22.50;41.86;100453.90;1901769;75;21038;-60
2022/06/24 15:15:01;;;;;;;1.12;0.60;;;;;;;22.47;41.96;100455.55;1901986;75;21047;-60
2022/06/24 15:17:30;;;;;;;1.65;0.65;;;;;;;22.40;42.12;100459.29;1901886;75;21114;-58
2022/06/24 15:19:58;;;;;;;1.05;0.60;;;;;;;22.33;42.14;100463.03;1902010;75;21047;-59
2022/06/24 15:22:27;;;;;;;2.58;0.50;;;;;;;22.30;41.87;100466.52;1901901;75;21168;-59
2022/06/24 15:24:56;;;;;;;4.17;0.80;;;;;;;22.23;42.04;100458.66;1901990;75;21052;-61
2022/06/24 15:27:25;;;;;;;0.42;0.40;;;;;;;22.19;42.22;100467.48;1901925;75;21044;-59
2022/06/24 15:29:53;;;;;;;0.50;0.50;;;;;;;22.14;42.53;100465.70;1902282;75;21490;-59
2022/06/24 15:32:22;;;;;;;0.85;0.70;;;;;;;22.07;42.89;100465.92;1901997;75;21051;-60
2022/06/24 15:34:51;;;;;;;0.50;0.50;;;;;;;22.03;43.17;100467.20;1902144;75;21020;-59
2022/06/24 15:37:20;;;;;;;2.85;0.62;;;;;;;21.97;43.20;100465.92;1902031;75;21051;-61
2022/06/24 15:39:48;;;;;;;1.07;0.53;;;;;;;21.92;43.40;100464.16;1901779;75;21036;-60
2022/06/24 15:42:17;;;;;;;0.68;0.68;;;;;;;21.88;43.26;100465.42;1901926;75;21141;-60
2022/06/24 15:44:46;;;;;;;3.33;0.50;;;;;;;21.86;43.37;100466.90;1902031;75;21122;-60
2022/06/24 15:47:15;;;;;;;3.87;0.72;;;;;;;21.82;43.75;100472.66;1902143;75;21169;-59
2022/06/24 15:49:43;;;;;;;0.80;0.50;;;;;;;21.77;44.12;100478.45;1901966;75;21064;-61
2022/06/24 15:52:12;;;;;;;2.25;0.65;;;;;;;21.70;44.37;100475.47;1901881;75;21106;-60
2022/06/24 15:54:41;;;;;;;0.60;0.60;;;;;;;21.65;44.48;100473.69;1901987;75;21047;-61
2022/06/24 15:57:09;;;;;;;1.45;0.40;;;;;;;21.62;44.82;100474.48;1901898;75;21113;-61
2022/06/24 15:59:38;;;;;;;1.35;0.40;;;;;;;21.58;45.10;100482.80;1901824;75;21090;-61
2022/06/24 16:02:07;;;;;;;0.65;0.65;;;;;;;21.56;45.47;100479.41;1901920;75;21043;-60
2022/06/24 16:04:35;;;;;;;1.12;0.62;;;;;;;21.53;45.80;100479.67;1901801;75;21043;-61
2022/06/24 16:07:04;;;;;;;1.07;0.65;;;;;;;21.50;45.83;100479.94;1901935;75;21095;-60
2022/06/24 16:09:33;;;;;;;1.45;0.68;;;;;;;21.48;45.50;100474.37;1901901;75;21462;-60
2022/06/24 16:14:48;;;;;;;1.00;0.65;;;;;;;21.39;45.30;100494.74;1901896;75;21059;-61
2022/06/24 16:17:17;;;;;;;0.90;0.70;;;;;;;21.32;45.18;100490.91;1901777;75;21122;-61
2022/06/24 16:19:45;;;;;;;0.93;0.50;;;;;;;21.25;45.00;100493.30;1901901;75;21052;-61
2022/06/24 16:22:14;;;;;;;0.95;0.68;;;;;;;21.16;45.36;100490.94;1901949;75;21040;-62
2022/06/24 16:30:16;;;;;;;3.08;0.65;;;;;;;20.96;46.38;100508.72;1908385;75;21110;-60
2022/06/24 16:32:46;;;;;;;5.12;0.80;;;;;;;20.91;46.83;100504.75;1914506;75;21136;-61
2022/06/24 16:35:15;;;;;;;0.70;0.65;;;;;;;20.88;46.91;100513.03;1914622;75;21039;-60
2022/06/24 16:37:44;;;;;;;3.60;0.90;;;;;;;20.82;47.23;100516.62;1914496;75;21071;-59
2022/06/24 16:40:13;;;;;;;0.82;0.70;;;;;;;20.76;47.82;100519.80;1914465;75;21031;-60
2022/06/24 16:43:15;;;;;;;2.83;0.80;;;;;;;20.71;48.15;100521.17;1914590;75;21039;-60
2022/06/24 16:45:13;;;;;;;3.17;0.88;;;;;;;20.65;48.49;100521.71;1909072;75;21035;-60
2022/06/24 16:47:41;;;;;;;2.17;0.80;;;;;;;20.59;48.85;100533.75;1914627;75;21117;-61
2022/06/24 16:50:10;;;;;;;3.45;0.72;;;;;;;20.52;49.11;100537.42;1914460;75;21121;-61
2022/06/24 16:52:39;;;;;;;2.33;1.07;;;;;;;20.46;49.45;100529.08;1914430;75;21153;-60
2022/06/24 16:55:08;;;;;;;1.10;0.70;;;;;;;20.39;49.74;100538.09;1914474;75;21106;-60
2022/06/24 16:57:37;;;;;;;2.25;0.90;;;;;;;20.31;49.91;100536.06;1914575;75;21192;-61
2022/06/24 17:00:07;;;;;;;1.07;0.80;;;;;;;20.26;50.39;100540.94;1914447;75;21040;-60
2022/06/24 17:02:35;;;;;;;3.72;0.90;;;;;;;20.18;50.46;100543.41;1914606;75;21108;-61
2022/06/24 17:05:04;;;;;;;2.65;0.90;;;;;;;20.13;50.70;100545.61;1914371;75;21109;-61
2022/06/24 17:07:33;;;;;;;2.08;0.70;;;;;;;20.07;50.59;100546.97;1914618;75;21047;-61
2022/06/24 17:10:01;;;;;;;6.17;0.70;;;;;;;19.97;50.99;100548.68;1914485;75;21043;-61
2022/06/24 17:12:30;;;;;;;0.80;0.80;;;;;;;19.88;51.21;100554.77;1914418;75;21121;-61
2022/06/24 17:14:59;;;;;;;2.20;0.72;;;;;;;19.79;51.72;100560.36;1914430;75;21091;-60
2022/06/24 17:17:27;;;;;;;1.30;0.80;;;;;;;19.70;52.23;100563.75;1914547;75;21043;-60
2022/06/24 17:19:56;;;;;;;98.45;27.27;;;;;;;19.61;52.56;100564.86;1914489;75;21184;-59
2022/06/24 17:22:25;;;;;;;8.13;3.25;;;;;;;19.55;52.58;100567.16;1914440;75;21035;-60
2022/06/24 17:24:54;;;;;;;5.33;2.50;;;;;;;19.48;53.01;100571.66;1914488;75;21079;-60
2022/06/24 17:27:22;;;;;;;30.88;11.12;;;;;;;19.41;53.62;100570.94;1914490;75;21047;-59
2022/06/24 17:29:51;;;;;;;22.82;9.10;;;;;;;19.32;53.75;100571.66;1913821;75;21047;-60
2022/06/24 17:32:20;;;;;;;35.40;12.18;;;;;;;19.26;53.84;100576.50;1901849;75;21051;-60
2022/06/24 17:34:48;;;;;;;14.33;6.03;;;;;;;19.20;54.03;100579.66;1901878;75;21618;-60
2022/06/24 17:37:17;;;;;;;6.15;2.85;;;;;;;19.13;54.41;100575.77;1901966;75;21036;-60
2022/06/24 17:39:46;;;;;;;7.58;1.92;;;;;;;19.05;54.53;100582.17;1901781;75;21047;-60
2022/06/24 17:42:15;;;;;;;20.85;6.28;;;;;;;18.98;54.99;100590.27;1901953;75;21105;-61
2022/06/24 17:44:43;;;;;;;15.93;4.50;;;;;;;18.93;55.05;100595.14;1901710;75;21047;-60
2022/06/24 17:47:12;;;;;;;5.28;2.62;;;;;;;18.86;55.38;100591.58;1902043;75;21039;-60
2022/06/24 17:49:41;;;;;;;7.65;2.12;;;;;;;18.81;55.58;100592.91;1902051;75;21012;-60
2022/06/24 17:52:09;;;;;;;4.55;2.52;;;;;;;18.74;55.95;100596.50;1901963;75;21095;-60
2022/06/24 17:54:38;;;;;;;9.48;3.40;;;;;;;18.69;56.00;100604.00;1901865;75;21040;-62
2022/06/24 17:57:07;;;;;;;4.28;1.50;;;;;;;18.63;56.38;100611.13;1901763;75;21514;-61
2022/06/24 17:59:36;;;;;;;7.05;1.95;;;;;;;18.58;56.49;100608.80;1901845;75;21024;-61
2022/06/24 18:02:05;;;;;;;4.65;1.57;;;;;;;18.54;56.95;100610.00;1901934;75;21547;-61
2022/06/24 18:04:34;;;;;;;8.00;3.08;;;;;;;18.50;57.14;100616.04;1901903;75;21043;-62
2022/06/24 18:07:02;;;;;;;14.45;3.75;;;;;;;18.48;58.07;100617.97;1901950;75;21109;-61
2022/06/24 18:09:31;;;;;;;14.95;4.53;;;;;;;18.44;58.92;100617.84;1901897;75;21039;-62
2022/06/24 18:12:04;;;;;;;9.28;2.30;;;;;;;18.39;59.20;100625.31;1901819;75;21082;-62
2022/06/24 18:14:30;;;;;;;5.20;2.92;;;;;;;18.35;59.21;100624.31;1899850;75;21052;-61
2022/06/24 18:16:59;;;;;;;3.77;1.45;;;;;;;18.31;59.90;100630.34;1901819;75;21606;-61
2022/06/24 18:19:29;;;;;;;4.85;1.60;;;;;;;18.28;60.51;100622.59;1901946;75;21083;-61
2022/06/24 18:21:58;;;;;;;2.52;1.62;;;;;;;18.26;61.21;100629.36;1901958;75;21043;-61
2022/06/24 18:24:26;;;;;;;2.65;1.80;;;;;;;18.23;61.71;100635.40;1901888;75;21083;-61
2022/06/24 18:26:55;;;;;;;2.50;1.77;;;;;;;18.18;61.54;100634.88;1901900;75;21106;-62
2022/06/24 18:29:24;;;;;;;2.37;1.50;;;;;;;18.12;61.44;100636.17;1901849;75;21564;-60
2022/06/24 18:31:53;;;;;;;4.00;0.98;;;;;;;18.08;61.84;100632.88;1908888;75;21086;-62
2022/06/24 18:34:22;;;;;;;1.62;0.80;;;;;;;18.03;61.85;100628.84;1914552;75;21110;-60
2022/06/24 18:36:50;;;;;;;2.67;0.80;;;;;;;17.99;61.69;100624.22;1914440;75;21031;-62
2022/06/24 18:39:19;;;;;;;2.83;1.30;;;;;;;17.96;61.71;100623.09;1914407;75;21093;-60
2022/06/24 18:41:47;;;;;;;11.70;4.80;;;;;;;17.93;61.64;100625.51;1914544;75;21121;-60
2022/06/24 18:44:16;;;;;;;7.15;2.27;;;;;;;17.92;61.62;100625.12;1914539;75;21039;-60
2022/06/24 18:46:44;;;;;;;2.85;1.30;;;;;;;17.89;61.67;100628.48;1914507;75;21035;-61
2022/06/24 18:49:13;;;;;;;4.47;0.93;;;;;;;17.86;61.95;100631.39;1914547;75;21015;-61
2022/06/24 18:51:42;;;;;;;3.17;0.80;;;;;;;17.83;62.57;100623.09;1914531;75;21101;-60
2022/06/24 18:54:11;;;;;;;7.75;3.22;;;;;;;17.82;62.92;100625.89;1914526;75;21509;-61
2022/06/24 18:56:40;;;;;;;3.10;1.27;;;;;;;17.79;62.92;100626.09;1914572;75;21082;-61
2022/06/24 18:59:12;;;;;;;3.00;1.02;;;;;;;17.78;62.79;100627.91;1914546;75;21039;-61
2022/06/24 19:01:41;;;;;;;6.55;0.98;;;;;;;17.74;62.79;100635.73;1914900;75;21056;-62
2022/06/24 19:04:09;;;;;;;1.82;0.90;;;;;;;17.68;62.82;100630.84;1914624;75;21114;-62
2022/06/24 19:06:38;;;;;;;4.75;0.88;;;;;;;17.66;62.89;100642.09;1914569;75;21113;-61
2022/06/24 19:09:06;;;;;;;3.60;1.00;;;;;;;17.62;63.03;100640.13;1914510;75;21121;-58
2022/06/24 19:11:36;;;;;;;2.30;1.20;;;;;;;17.60;63.10;100642.04;1914515;75;21019;-58
2022/06/24 19:14:04;;;;;;;2.52;1.10;;;;;;;17.60;63.15;100646.03;1914641;75;21044;-58
2022/06/24 19:16:33;;;;;;;1.02;0.82;;;;;;;17.59;63.25;100640.33;1914475;75;21095;-58
2022/06/24 19:19:09;;;;;;;1.52;0.72;;;;;;;17.59;64.39;100636.33;1914641;75;21121;-58
2022/06/24 19:21:39;;;;;;;2.58;0.85;;;;;;;17.59;64.69;100635.00;1914748;75;21044;-57
2022/06/24 19:24:10;;;;;;;2.95;0.80;;;;;;;17.58;64.96;100635.98;1914660;75;21047;-57
2022/06/24 19:26:39;;;;;;;3.05;1.00;;;;;;;17.58;65.60;100631.98;1914606;75;21113;-59
2022/06/24 19:29:09;;;;;;;2.92;1.15;;;;;;;17.64;66.29;100638.20;1914614;75;21109;-58
2022/06/24 19:31:39;;;;;;;1.85;0.90;;;;;;;17.67;66.87;100634.45;1913751;75;21525;-58
2022/06/24 19:34:08;;;;;;;5.95;1.40;;;;;;;17.66;67.50;100628.28;1909253;75;21573;-58
2022/06/24 19:36:36;;;;;;;3.10;1.47;;;;;;;17.66;68.17;100632.28;1909304;75;21027;-58
2022/06/24 19:39:05;;;;;;;3.10;1.30;;;;;;;17.64;68.90;100638.20;1909253;75;21023;-58
2022/06/24 19:41:35;;;;;;;6.72;1.80;;;;;;;17.62;69.18;100637.95;1909103;75;21034;-58
2022/06/24 19:44:04;;;;;;;5.50;1.52;;;;;;;17.57;69.13;100631.59;1909230;75;21152;-59
2022/06/24 19:46:34;;;;;;;7.70;1.40;;;;;;;17.50;68.98;100630.32;1909260;75;21036;-58
2022/06/24 19:49:04;;;;;;;2.10;1.22;;;;;;;17.42;68.54;100627.36;1909468;75;21454;-58
2022/06/24 19:51:33;;;;;;;8.55;1.30;;;;;;;17.35;68.26;100630.45;1909096;75;21043;-58
2022/06/24 19:54:01;;;;;;;1.85;1.30;;;;;;;17.29;68.27;100632.19;1909215;75;21114;-58
2022/06/24 19:56:30;;;;;;;3.10;1.57;;;;;;;17.24;68.18;100643.62;1909266;75;21086;-58
2022/06/24 19:58:59;;;;;;;2.40;1.17;;;;;;;17.26;67.87;100646.18;1909274;75;21113;-58
2022/06/24 20:07:00;;;;;;;2.55;1.00;;;;;;;17.28;67.71;100641.14;1909135;75;21581;-58
2022/06/24 20:09:29;;;;;;;4.15;1.37;;;;;;;17.25;67.65;100637.35;1909249;75;21119;-58
2022/06/24 20:12:03;;;;;;;5.42;1.57;;;;;;;17.24;67.69;100638.30;1909157;75;21043;-58
2022/06/24 20:14:36;;;;;;;3.20;1.50;;;;;;;17.22;67.75;100640.21;1909166;75;21052;-58
2022/06/24 20:17:06;;;;;;;11.00;1.87;;;;;;;17.20;67.83;100643.46;1909373;75;21580;-58
2022/06/24 20:19:35;;;;;;;11.18;1.60;;;;;;;17.17;67.76;100642.33;1909236;75;21532;-58
2022/06/24 20:22:04;;;;;;;9.90;2.12;;;;;;;17.13;68.47;100637.73;1909158;75;21040;-58
2022/06/24 20:24:40;;;;;;;2.05;1.50;;;;;;;17.11;68.72;100631.62;1909238;75;21121;-58
2022/06/24 20:27:12;;;;;;;2.98;1.80;;;;;;;17.09;68.95;100636.20;1909073;75;21039;-58
2022/06/24 20:29:39;;;;;;;7.12;2.50;;;;;;;17.09;68.65;100633.55;1908934;75;21086;-58
2022/06/24 20:32:11;;;;;;;2.98;1.82;;;;;;;17.06;68.61;100636.44;1909066;75;21043;-59
2022/06/24 20:34:40;;;;;;;6.12;1.92;;;;;;;17.01;68.60;100633.23;1901894;75;21047;-58
2022/06/24 20:37:10;;;;;;;5.72;1.92;;;;;;;16.98;68.49;100636.93;1901975;75;21466;-59
2022/06/24 20:39:39;;;;;;;3.05;1.60;;;;;;;16.98;68.71;100641.41;1901801;75;21060;-59
2022/06/24 20:42:08;;;;;;;3.05;1.60;;;;;;;16.96;68.67;100636.19;1902016;75;21449;-58
2022/06/24 20:44:36;;;;;;;7.22;2.47;;;;;;;16.95;68.80;100637.16;1901966;75;21109;-58
2022/06/24 20:47:05;;;;;;;6.78;2.40;;;;;;;16.93;69.25;100635.08;1901980;75;21457;-58
2022/06/24 20:49:34;;;;;;;13.62;2.77;;;;;;;16.91;69.38;100631.67;1901986;75;21435;-58
2022/06/24 20:52:03;;;;;;;10.58;3.65;;;;;;;16.87;69.25;100631.48;1901947;75;21097;-58
2022/06/24 20:54:32;;;;;;;19.05;3.58;;;;;;;16.84;69.20;100632.16;1901966;75;21173;-58
2022/06/24 20:57:00;;;;;;;18.48;6.60;;;;;;;16.81;69.16;100637.19;1901906;75;21055;-58
2022/06/24 20:59:29;;;;;;;20.88;7.15;;;;;;;16.74;69.16;100639.88;1901996;75;21032;-58
2022/06/24 21:01:58;;;;;;;19.05;6.47;;;;;;;16.68;69.19;100637.64;1901983;75;21101;-59
2022/06/24 21:04:27;;;;;;;14.43;5.05;;;;;;;16.62;69.24;100632.71;1901881;75;21008;-59
2022/06/24 21:06:55;;;;;;;8.55;4.30;;;;;;;16.55;69.32;100626.48;1901738;75;21044;-58
2022/06/24 21:09:24;;;;;;;12.18;3.20;;;;;;;16.50;69.92;100629.91;1901929;75;21043;-58
2022/06/24 21:11:53;;;;;;;14.28;3.30;;;;;;;16.46;70.17;100633.73;1901866;75;21538;-58
2022/06/24 21:14:22;;;;;;;12.78;3.27;;;;;;;16.42;70.94;100626.08;1901947;75;21020;-58
2022/06/24 21:16:50;;;;;;;9.35;3.20;;;;;;;16.41;70.81;100630.52;1901880;75;21087;-58
2022/06/24 21:19:20;;;;;;;10.85;3.58;;;;;;;16.38;70.77;100628.08;1901859;75;21793;-58
2022/06/24 21:21:49;;;;;;;9.73;2.72;;;;;;;16.34;70.68;100631.86;1901882;75;21122;-58
2022/06/24 21:24:17;;;;;;;12.07;3.52;;;;;;;16.30;70.59;100633.02;1901990;75;21118;-58
2022/06/24 21:26:46;;;;;;;11.40;3.05;;;;;;;16.26;70.53;100631.52;1901874;75;21121;-58
2022/06/24 21:29:14;;;;;;;10.18;3.45;;;;;;;16.20;70.50;100640.25;1901866;75;21117;-58
2022/06/24 21:31:43;;;;;;;10.10;3.50;;;;;;;16.15;70.56;100638.84;1901805;75;21104;-58
2022/06/24 21:34:12;;;;;;;14.28;4.00;;;;;;;16.09;70.63;100645.41;1901739;75;21067;-58
2022/06/24 21:36:40;;;;;;;14.68;4.15;;;;;;;16.09;70.67;100639.25;1902093;75;21181;-58
2022/06/24 21:39:09;;;;;;;12.18;5.03;;;;;;;16.09;70.65;100633.45;1901956;75;21113;-59
2022/06/24 21:41:38;;;;;;;12.10;3.70;;;;;;;16.11;70.56;100620.92;1901993;75;21109;-58
2022/06/24 21:44:07;;;;;;;8.25;3.58;;;;;;;16.12;70.50;100627.95;1901866;75;21015;-58
2022/06/24 21:46:36;;;;;;;14.38;4.08;;;;;;;16.13;70.46;100632.30;1901889;75;21502;-58
2022/06/24 21:49:05;;;;;;;13.68;4.62;;;;;;;16.13;70.46;100626.98;1901951;75;21486;-58
2022/06/24 21:51:33;;;;;;;9.25;4.37;;;;;;;16.09;70.68;100628.14;1901835;75;21036;-58
2022/06/24 21:54:02;;;;;;;12.45;3.75;;;;;;;16.06;70.82;100627.00;1902090;75;21043;-58
2022/06/24 21:56:31;;;;;;;10.00;3.37;;;;;;;16.02;70.91;100630.32;1902085;75;21145;-57
2022/06/24 21:59:00;;;;;;;4.62;2.45;;;;;;;15.99;70.94;100625.23;1901762;75;21098;-58
2022/06/24 22:01:28;;;;;;;5.47;2.30;;;;;;;15.97;70.85;100626.25;1901984;75;21110;-58
2022/06/24 22:03:57;;;;;;;7.00;2.77;;;;;;;15.93;70.85;100622.94;1901844;75;21102;-58
2022/06/24 22:06:25;;;;;;;8.03;4.67;;;;;;;15.91;70.92;100628.83;1901847;75;21149;-58
2022/06/24 22:08:54;;;;;;;9.65;1.92;;;;;;;15.91;70.94;100628.83;1902082;75;21069;-57
2022/06/24 22:11:23;;;;;;;11.60;2.27;;;;;;;15.92;70.87;100631.03;1901753;75;21122;-57
2022/06/24 22:13:52;;;;;;;10.20;1.98;;;;;;;15.91;70.88;100634.62;1901842;75;21106;-57
2022/06/24 22:16:21;;;;;;;8.95;2.40;;;;;;;15.87;71.03;100625.14;1902040;75;21133;-57
2022/06/24 22:18:49;;;;;;;8.73;1.87;;;;;;;15.85;71.11;100621.26;1901929;75;21129;-57
2022/06/24 22:21:18;;;;;;;5.55;2.55;;;;;;;15.83;71.21;100624.48;1901912;75;21109;-58
2022/06/24 22:23:47;;;;;;;8.40;2.47;;;;;;;15.83;71.28;100626.66;1901970;75;21038;-58